createdAt,value
2023-02-23T00:01:57.737Z,18.73
2023-02-23T00:04:25.345Z,19.08
2023-02-23T00:06:53.551Z,17.48
2023-02-23T00:09:24.633Z,19.02
2023-02-23T00:11:53.637Z,17.65
2023-02-23T00:14:23.263Z,18.58
2023-02-23T00:16:50.337Z,13.70
2023-02-23T00:19:17.718Z,17.55
2023-02-23T00:21:45.526Z,18.08
2023-02-23T00:24:19.180Z,17.75
2023-02-23T00:26:48.024Z,18.50
2023-02-23T00:29:17.910Z,18.02
2023-02-23T00:31:45.958Z,17.80
2023-02-23T00:34:15.159Z,20.42
2023-02-23T00:36:43.045Z,18.58
2023-02-23T00:39:22.850Z,17.48
2023-02-23T00:41:52.592Z,19.08
2023-02-23T00:44:21.871Z,18.95
2023-02-23T00:46:51.526Z,19.63
2023-02-23T00:49:19.757Z,17.02
2023-02-23T00:51:47.091Z,17.48
2023-02-23T00:54:17.001Z,16.80
2023-02-23T00:56:44.258Z,17.08
2023-02-23T00:59:11.721Z,17.30
2023-02-23T01:01:39.615Z,16.08
2023-02-23T01:04:09.696Z,16.23
2023-02-23T01:06:40.817Z,16.98
2023-02-23T01:09:14.675Z,15.20
2023-02-23T01:11:41.935Z,16.23
2023-02-23T01:14:10.540Z,16.42
2023-02-23T01:16:39.256Z,16.38
2023-02-23T01:19:07.203Z,16.80
2023-02-23T01:21:42.242Z,16.08
2023-02-23T01:24:10.125Z,15.50
2023-02-23T01:26:40.568Z,16.52
2023-02-23T01:31:37.966Z,14.18
2023-02-23T01:34:06.151Z,15.68
2023-02-23T01:36:39.055Z,14.98
2023-02-23T01:39:08.624Z,14.15
2023-02-23T01:41:37.298Z,13.80
2023-02-23T01:44:28.760Z,15.30
2023-02-23T01:46:55.641Z,14.50
2023-02-23T01:49:27.989Z,14.55
2023-02-23T01:51:57.875Z,14.02
2023-02-23T01:54:33.126Z,14.07
2023-02-23T01:57:03.033Z,12.68
2023-02-23T01:59:39.073Z,11.27
2023-02-23T02:02:06.229Z,13.00
2023-02-23T02:04:44.736Z,12.85
2023-02-23T02:07:23.583Z,13.27
2023-02-23T02:10:17.204Z,14.27
2023-02-23T02:12:44.313Z,12.65
2023-02-23T02:15:17.527Z,12.25
2023-02-23T02:18:03.442Z,12.07
2023-02-23T02:20:38.436Z,13.65
2023-02-23T02:23:36.970Z,13.07
2023-02-23T02:26:29.574Z,12.30
2023-02-23T02:29:11.214Z,12.90
2023-02-23T02:31:40.917Z,12.35
2023-02-23T02:34:26.326Z,12.57
2023-02-23T02:37:21.076Z,13.10
2023-02-23T02:40:16.474Z,11.77
2023-02-23T02:43:15.040Z,11.80
2023-02-23T02:45:53.328Z,11.95
2023-02-23T02:49:03.176Z,11.82
2023-02-23T02:51:35.265Z,12.00
2023-02-23T02:54:06.940Z,12.35
2023-02-23T02:56:40.676Z,11.07
2023-02-23T02:59:35.999Z,11.57
2023-02-23T03:02:23.940Z,11.68
2023-02-23T03:05:09.553Z,11.25
2023-02-23T03:08:23.620Z,11.77
2023-02-23T03:11:14.930Z,14.00
2023-02-23T03:14:29.526Z,13.07
2023-02-23T03:17:42.665Z,13.10
2023-02-23T03:20:30.805Z,10.07
2023-02-23T03:23:25.411Z,11.43
2023-02-23T03:26:20.585Z,9.82
2023-02-23T03:29:31.812Z,11.15
2023-02-23T03:32:36.288Z,13.02
2023-02-23T03:35:38.131Z,13.32
2023-02-23T03:38:36.250Z,11.40
2023-02-23T03:41:23.306Z,12.18
2023-02-23T03:44:23.957Z,11.88
2023-02-23T03:49:58.533Z,12.02
2023-02-23T03:53:04.230Z,12.43
2023-02-23T03:55:54.246Z,12.68
2023-02-23T03:58:48.642Z,12.02
2023-02-23T04:01:36.715Z,11.48
2023-02-23T04:04:25.292Z,11.85
2023-02-23T04:07:14.210Z,12.93
2023-02-23T04:09:59.952Z,11.85
2023-02-23T04:12:54.145Z,12.05
2023-02-23T04:15:41.236Z,11.55
2023-02-23T04:18:14.664Z,13.07
2023-02-23T04:20:41.729Z,11.45
2023-02-23T04:23:08.683Z,12.32
2023-02-23T04:25:35.624Z,13.75
2023-02-23T04:28:03.601Z,14.23
2023-02-23T04:30:30.676Z,12.93
2023-02-23T04:32:59.219Z,13.25
2023-02-23T04:35:28.764Z,13.82
2023-02-23T04:37:56.045Z,13.87
2023-02-23T04:40:24.355Z,13.35
2023-02-23T04:42:51.537Z,14.05
2023-02-23T04:45:19.169Z,13.82
2023-02-23T04:47:46.181Z,13.05
2023-02-23T04:50:13.559Z,11.65
2023-02-23T04:52:40.873Z,13.90
2023-02-23T04:55:09.321Z,14.20
2023-02-23T04:57:36.256Z,13.52
2023-02-23T05:00:04.669Z,13.90
2023-02-23T05:02:32.199Z,14.25
2023-02-23T05:04:59.125Z,12.70
2023-02-23T05:07:26.083Z,13.82
2023-02-23T05:09:53.106Z,13.40
2023-02-23T05:12:20.820Z,13.73
2023-02-23T05:14:47.687Z,13.70
2023-02-23T05:17:14.571Z,13.00
2023-02-23T05:19:41.728Z,13.57
2023-02-23T05:22:12.631Z,13.75
2023-02-23T05:24:42.679Z,14.02
2023-02-23T05:27:11.278Z,12.52
2023-02-23T05:29:38.257Z,12.85
2023-02-23T05:32:05.477Z,14.52
2023-02-23T05:34:32.483Z,15.05
2023-02-23T05:36:59.363Z,13.98
2023-02-23T05:39:26.349Z,13.30
2023-02-23T05:41:53.200Z,14.48
2023-02-23T05:44:20.053Z,14.73
2023-02-23T05:46:47.698Z,14.80
2023-02-23T05:49:14.549Z,13.43
2023-02-23T05:51:41.552Z,14.73
2023-02-23T05:54:09.467Z,13.07
2023-02-23T05:56:36.661Z,14.50
2023-02-23T05:59:05.519Z,13.95
2023-02-23T06:01:33.024Z,13.70
2023-02-23T06:04:00.083Z,14.25
2023-02-23T06:06:28.484Z,14.30
2023-02-23T06:08:55.706Z,14.82
2023-02-23T06:11:22.974Z,15.85
2023-02-23T06:13:49.998Z,15.65
2023-02-23T06:16:17.104Z,14.10
2023-02-23T06:18:44.155Z,15.90
2023-02-23T06:21:11.118Z,15.55
2023-02-23T06:23:38.228Z,13.85
2023-02-23T06:26:05.326Z,15.02
2023-02-23T06:28:32.612Z,13.82
2023-02-23T06:30:59.662Z,14.60
2023-02-23T06:33:26.789Z,13.93
2023-02-23T06:35:54.820Z,14.43
2023-02-23T06:38:22.088Z,13.95
2023-02-23T06:40:48.957Z,13.77
2023-02-23T06:43:15.832Z,13.75
2023-02-23T06:45:42.715Z,14.98
2023-02-23T06:48:09.612Z,13.27
2023-02-23T06:50:36.567Z,15.23
2023-02-23T06:53:03.502Z,14.45
2023-02-23T06:55:30.639Z,14.73
2023-02-23T06:57:57.595Z,15.73
2023-02-23T07:00:24.648Z,15.02
2023-02-23T07:02:51.528Z,15.35
2023-02-23T07:05:18.643Z,15.55
2023-02-23T07:07:46.672Z,14.82
2023-02-23T07:10:13.725Z,15.85
2023-02-23T07:12:43.521Z,15.73
2023-02-23T07:15:10.933Z,11.48
2023-02-23T07:17:37.998Z,13.45
2023-02-23T07:20:05.572Z,14.82
2023-02-23T07:22:34.246Z,14.98
2023-02-23T07:25:01.287Z,15.63
2023-02-23T07:27:28.280Z,14.45
2023-02-23T07:29:55.152Z,15.10
2023-02-23T07:32:22.275Z,15.27
2023-02-23T07:34:49.219Z,16.75
2023-02-23T07:37:19.595Z,15.60
2023-02-23T07:39:46.637Z,16.80
2023-02-23T07:42:13.988Z,16.02
2023-02-23T07:44:40.860Z,15.35
2023-02-23T07:47:09.178Z,15.73
2023-02-23T07:49:36.029Z,15.07
2023-02-23T07:52:03.220Z,16.02
2023-02-23T07:54:30.137Z,15.20
2023-02-23T07:56:57.261Z,14.68
2023-02-23T07:59:24.150Z,15.77
2023-02-23T08:01:51.884Z,16.83
2023-02-23T08:04:19.276Z,15.88
2023-02-23T08:06:46.186Z,15.85
2023-02-23T08:09:13.127Z,15.20
2023-02-23T08:11:40.557Z,14.50
2023-02-23T08:14:07.463Z,16.25
2023-02-23T08:16:34.624Z,14.32
2023-02-23T08:19:01.738Z,15.10
2023-02-23T08:21:29.626Z,14.85
2023-02-23T08:23:58.263Z,15.27
2023-02-23T08:26:25.923Z,13.70
2023-02-23T08:28:54.844Z,13.15
2023-02-23T08:31:24.295Z,12.45
2023-02-23T08:33:51.795Z,13.53
2023-02-23T08:36:19.018Z,12.48
2023-02-23T08:38:45.862Z,10.50
2023-02-23T08:41:12.898Z,13.07
2023-02-23T08:43:39.932Z,11.80
2023-02-23T08:46:07.470Z,12.25
2023-02-23T08:48:35.227Z,12.63
2023-02-23T08:51:02.525Z,12.77
2023-02-23T08:53:29.892Z,13.50
2023-02-23T08:56:01.783Z,13.38
2023-02-23T08:58:30.778Z,11.85
2023-02-23T09:00:58.447Z,12.50
2023-02-23T09:03:26.617Z,13.45
2023-02-23T09:05:53.654Z,14.07
2023-02-23T09:08:21.138Z,13.20
2023-02-23T09:10:48.033Z,12.18
2023-02-23T09:13:15.882Z,12.98
2023-02-23T09:15:43.652Z,13.30
2023-02-23T09:18:17.499Z,14.00
2023-02-23T09:20:45.491Z,13.13
2023-02-23T09:23:13.228Z,13.45
2023-02-23T09:25:44.788Z,14.27
2023-02-23T09:28:14.205Z,13.55
2023-02-23T09:30:42.955Z,12.50
2023-02-23T09:33:10.214Z,14.07
2023-02-23T09:35:37.526Z,13.90
2023-02-23T09:38:07.792Z,13.52
2023-02-23T09:40:44.782Z,13.95
2023-02-23T09:43:24.306Z,12.93
2023-02-23T09:46:29.614Z,13.63
2023-02-23T09:49:01.003Z,13.90
2023-02-23T09:51:29.769Z,14.82
2023-02-23T09:54:03.293Z,15.57
2023-02-23T09:56:36.182Z,13.52
2023-02-23T09:59:05.944Z,13.07
2023-02-23T10:01:41.860Z,13.05
2023-02-23T10:04:11.983Z,13.45
2023-02-23T10:06:42.614Z,12.48
2023-02-23T10:09:27.796Z,11.93
2023-02-23T10:12:09.846Z,11.98
2023-02-23T10:14:48.644Z,11.57
2023-02-23T10:17:21.396Z,10.48
2023-02-23T10:20:13.547Z,11.52
2023-02-23T10:22:42.196Z,11.15
2023-02-23T10:25:17.182Z,11.98
2023-02-23T10:27:47.965Z,12.50
2023-02-23T10:33:05.959Z,11.48
2023-02-23T10:35:34.035Z,10.43
2023-02-23T10:38:02.130Z,11.10
2023-02-23T10:40:33.194Z,11.57
2023-02-23T10:43:03.514Z,11.52
2023-02-23T10:45:37.914Z,10.23
2023-02-23T10:48:08.503Z,11.93
2023-02-23T10:50:38.986Z,10.68
2023-02-23T10:53:26.674Z,11.35
2023-02-23T10:56:15.194Z,10.40
2023-02-23T10:58:52.154Z,9.63
2023-02-23T11:01:41.903Z,11.27
2023-02-23T11:04:29.260Z,10.15
2023-02-23T11:07:29.539Z,10.20
2023-02-23T11:10:18.900Z,9.85
2023-02-23T11:12:45.810Z,10.27
2023-02-23T11:15:35.200Z,10.60
2023-02-23T11:18:21.292Z,10.73
2023-02-23T11:20:49.235Z,11.35
2023-02-23T11:23:23.330Z,11.55
2023-02-23T11:26:00.207Z,11.07
2023-02-23T11:28:43.412Z,10.77
2023-02-23T11:31:19.276Z,11.20
2023-02-23T11:33:50.818Z,11.45
2023-02-23T11:36:30.865Z,11.50
2023-02-23T11:39:05.875Z,11.30
2023-02-23T11:41:35.506Z,10.15
2023-02-23T11:44:06.018Z,9.68
2023-02-23T11:49:05.978Z,11.75
2023-02-23T11:51:41.734Z,12.00
2023-02-23T11:54:23.195Z,11.40
2023-02-23T11:56:54.168Z,11.75
2023-02-23T11:59:31.121Z,11.70
2023-02-23T12:02:19.267Z,11.48
2023-02-23T12:04:49.675Z,11.38
2023-02-23T12:07:50.263Z,11.18
2023-02-23T12:10:24.398Z,11.85
2023-02-23T12:13:12.623Z,11.02
2023-02-23T12:15:54.757Z,10.90
2023-02-23T12:18:39.619Z,10.80
2023-02-23T12:21:37.245Z,12.02
2023-02-23T12:24:26.844Z,10.73
2023-02-23T12:27:13.043Z,11.45
2023-02-23T12:30:09.084Z,11.57
2023-02-23T12:32:45.883Z,12.10
2023-02-23T12:35:19.184Z,11.80
2023-02-23T12:38:09.873Z,11.27
2023-02-23T12:40:42.143Z,10.77
2023-02-23T12:43:38.684Z,11.57
2023-02-23T12:46:10.891Z,10.30
2023-02-23T12:49:12.553Z,10.57
2023-02-23T12:51:47.653Z,10.30
2023-02-23T12:54:16.748Z,11.68
2023-02-23T12:57:10.683Z,11.50
2023-02-23T12:59:52.499Z,11.10
2023-02-23T13:03:10.500Z,10.88
2023-02-23T13:06:02.410Z,10.13
2023-02-23T13:08:35.484Z,9.90
2023-02-23T13:11:21.379Z,10.30
2023-02-23T13:14:00.485Z,10.70
2023-02-23T13:16:35.714Z,9.98
2023-02-23T13:19:26.812Z,10.82
2023-02-23T13:24:27.456Z,11.57
2023-02-23T13:27:03.909Z,9.85
2023-02-23T13:29:39.047Z,11.00
2023-02-23T13:32:12.429Z,10.32
2023-02-23T13:34:58.143Z,9.75
2023-02-23T13:37:32.272Z,10.23
2023-02-23T13:40:20.500Z,9.02
2023-02-23T13:43:09.958Z,9.63
2023-02-23T13:46:10.582Z,11.10
2023-02-23T13:49:21.930Z,9.35
2023-02-23T13:51:54.558Z,10.40
2023-02-23T13:54:32.535Z,10.98
2023-02-23T13:57:03.231Z,10.93
2023-02-23T13:59:45.645Z,10.82
2023-02-23T14:02:34.680Z,11.15
2023-02-23T14:05:31.702Z,10.30
2023-02-23T14:08:03.572Z,10.40
2023-02-23T14:10:41.256Z,10.02
2023-02-23T14:13:14.051Z,10.63
2023-02-23T14:15:45.037Z,11.82
2023-02-23T14:18:17.893Z,11.15
2023-02-23T14:20:56.455Z,10.30
2023-02-23T14:23:23.289Z,10.48
2023-02-23T14:26:13.145Z,11.75
2023-02-23T14:28:43.380Z,10.57
2023-02-23T14:31:13.321Z,10.50
2023-02-23T14:33:45.252Z,10.30
2023-02-23T14:36:24.502Z,10.80
2023-02-23T14:39:00.443Z,10.95
2023-02-23T14:41:50.314Z,10.75
2023-02-23T14:44:35.604Z,11.23
2023-02-23T14:47:13.142Z,10.45
2023-02-23T14:49:46.800Z,10.00
2023-02-23T14:52:20.980Z,10.98
2023-02-23T14:54:48.227Z,11.52
2023-02-23T14:57:36.920Z,12.07
2023-02-23T15:00:08.980Z,10.23
2023-02-23T15:02:43.161Z,10.77
2023-02-23T15:05:23.517Z,11.93
2023-02-23T15:10:35.397Z,11.07
2023-02-23T15:13:28.970Z,10.60
2023-02-23T15:15:57.800Z,10.68
2023-02-23T15:18:37.546Z,11.88
2023-02-23T15:21:18.745Z,10.95
2023-02-23T15:23:49.352Z,10.43
2023-02-23T15:26:31.857Z,10.50
2023-02-23T15:29:10.534Z,10.25
2023-02-23T15:31:41.123Z,10.88
2023-02-23T15:34:11.290Z,11.40
2023-02-23T15:36:40.070Z,8.90
2023-02-23T15:39:12.574Z,10.13
2023-02-23T15:41:40.101Z,9.98
2023-02-23T15:44:32.188Z,10.07
2023-02-23T15:47:09.780Z,10.23
2023-02-23T15:49:42.049Z,10.27
2023-02-23T15:52:22.472Z,9.45
2023-02-23T15:55:01.676Z,9.70
2023-02-23T15:57:43.784Z,10.38
2023-02-23T16:00:27.348Z,10.93
2023-02-23T16:02:57.462Z,10.27
2023-02-23T16:05:25.869Z,10.57
2023-02-23T16:08:22.886Z,9.07
2023-02-23T16:10:57.663Z,10.07
2023-02-23T16:13:24.748Z,9.40
2023-02-23T16:15:55.287Z,10.88
2023-02-23T16:18:43.518Z,11.13
2023-02-23T16:21:21.450Z,10.63
2023-02-23T16:23:52.675Z,10.48
2023-02-23T16:26:48.059Z,10.00
2023-02-23T16:29:19.477Z,9.30
2023-02-23T16:31:49.406Z,8.75
2023-02-23T16:34:44.804Z,9.23
2023-02-23T16:37:23.101Z,8.68
2023-02-23T16:39:50.035Z,9.25
2023-02-23T16:42:34.088Z,10.02
2023-02-23T16:45:01.666Z,9.82
2023-02-23T16:47:36.647Z,9.43
2023-02-23T16:50:21.891Z,9.43
2023-02-23T16:52:53.716Z,8.63
2023-02-23T16:55:25.904Z,8.88
2023-02-23T16:58:07.619Z,9.20
2023-02-23T17:00:34.878Z,8.70
2023-02-23T17:03:02.344Z,9.65
2023-02-23T17:05:30.355Z,10.60
2023-02-23T17:07:59.156Z,9.88
2023-02-23T17:10:30.891Z,10.57
2023-02-23T17:13:05.085Z,10.73
2023-02-23T17:15:37.887Z,10.50
2023-02-23T17:18:05.928Z,10.68
2023-02-23T17:20:33.558Z,10.63
2023-02-23T17:23:02.232Z,10.60
2023-02-23T17:25:29.485Z,9.60
2023-02-23T17:27:57.473Z,10.40
2023-02-23T17:30:25.443Z,9.45
2023-02-23T17:32:55.160Z,9.80
2023-02-23T17:35:22.288Z,10.27
2023-02-23T17:37:49.402Z,9.57
2023-02-23T17:40:29.123Z,9.38
2023-02-23T17:42:58.201Z,9.23
2023-02-23T17:45:26.117Z,9.35
2023-02-23T17:47:53.326Z,9.98
2023-02-23T17:50:21.678Z,9.65
2023-02-23T17:52:49.735Z,10.55
2023-02-23T17:55:17.242Z,10.75
2023-02-23T17:57:44.350Z,9.80
2023-02-23T18:00:13.045Z,9.38
2023-02-23T18:02:41.266Z,9.63
2023-02-23T18:05:09.577Z,10.50
2023-02-23T18:07:36.848Z,11.05
2023-02-23T18:10:05.293Z,9.77
2023-02-23T18:12:32.664Z,10.32
2023-02-23T18:15:00.051Z,9.93
2023-02-23T18:17:27.337Z,10.27
2023-02-23T18:19:54.348Z,10.43
2023-02-23T18:22:21.297Z,11.07
2023-02-23T18:24:49.298Z,10.48
2023-02-23T18:27:16.302Z,10.55
2023-02-23T18:29:43.348Z,10.25
2023-02-23T18:32:12.007Z,10.65
2023-02-23T18:34:39.057Z,10.30
2023-02-23T18:37:10.150Z,10.85
2023-02-23T18:39:37.357Z,10.13
2023-02-23T18:42:04.991Z,10.20
2023-02-23T18:44:34.774Z,11.23
2023-02-23T18:47:02.585Z,11.07
2023-02-23T18:49:29.605Z,10.18
2023-02-23T18:52:00.293Z,11.15
2023-02-23T18:54:28.013Z,10.27
2023-02-23T18:56:55.958Z,10.10
2023-02-23T18:59:22.994Z,10.65
2023-02-23T19:01:49.934Z,9.52
2023-02-23T19:04:17.001Z,11.00
2023-02-23T19:06:45.982Z,10.45
2023-02-23T19:09:14.654Z,10.95
2023-02-23T19:11:43.489Z,10.18
2023-02-23T19:14:16.242Z,10.35
2023-02-23T19:16:44.323Z,10.60
2023-02-23T19:19:11.647Z,10.75
2023-02-23T19:21:39.004Z,10.15
2023-02-23T19:24:06.941Z,11.10
2023-02-23T19:26:39.949Z,10.75
2023-02-23T19:29:07.274Z,10.15
2023-02-23T19:31:35.035Z,10.60
2023-02-23T19:34:05.164Z,10.23
2023-02-23T19:36:35.748Z,11.27
2023-02-23T19:39:10.401Z,10.55
2023-02-23T19:41:39.487Z,10.30
2023-02-23T19:44:06.772Z,10.55
2023-02-23T19:46:35.006Z,10.82
2023-02-23T19:49:02.159Z,10.07
2023-02-23T19:51:29.560Z,9.52
2023-02-23T19:54:00.250Z,9.90
2023-02-23T19:56:28.579Z,9.80
2023-02-23T19:58:56.636Z,9.68
2023-02-23T20:01:27.699Z,9.45
2023-02-23T20:03:55.683Z,10.32
2023-02-23T20:06:29.693Z,9.65
2023-02-23T20:09:00.185Z,9.90
2023-02-23T20:11:27.283Z,9.98
2023-02-23T20:13:55.062Z,9.63
2023-02-23T20:16:22.081Z,10.02
2023-02-23T20:18:48.975Z,9.75
2023-02-23T20:21:19.436Z,9.30
2023-02-23T20:23:47.606Z,9.00
2023-02-23T20:26:20.639Z,9.10
2023-02-23T20:28:50.094Z,9.85
2023-02-23T20:31:26.161Z,10.00
2023-02-23T20:33:56.111Z,10.98
2023-02-23T20:36:23.824Z,9.32
2023-02-23T20:38:51.151Z,9.70
2023-02-23T20:41:18.335Z,9.93
2023-02-23T20:43:45.840Z,9.80
2023-02-23T20:46:15.569Z,10.85
2023-02-23T20:48:43.116Z,10.75
2023-02-23T20:51:13.755Z,11.07
2023-02-23T20:53:41.932Z,10.32
2023-02-23T20:56:10.052Z,10.15
2023-02-23T20:58:37.064Z,10.50
2023-02-23T21:01:06.646Z,11.40
2023-02-23T21:03:34.632Z,11.40
2023-02-23T21:06:01.754Z,10.75
2023-02-23T21:08:31.516Z,11.25
2023-02-23T21:11:05.652Z,11.20
2023-02-23T21:13:32.849Z,11.20
2023-02-23T21:16:01.505Z,11.55
2023-02-23T21:18:29.454Z,11.70
2023-02-23T21:21:09.786Z,12.75
2023-02-23T21:23:44.825Z,12.82
2023-02-23T21:26:15.845Z,11.85
2023-02-23T21:28:44.137Z,12.27
2023-02-23T21:31:12.907Z,11.63
2023-02-23T21:33:41.710Z,10.50
2023-02-23T21:36:10.570Z,12.20
2023-02-23T21:38:38.796Z,12.35
2023-02-23T21:41:06.429Z,10.73
2023-02-23T21:43:35.751Z,11.90
2023-02-23T21:46:11.713Z,11.57
2023-02-23T21:48:38.594Z,12.18
2023-02-23T21:51:07.895Z,12.05
2023-02-23T21:53:37.601Z,12.20
2023-02-23T21:56:12.053Z,12.07
2023-02-23T21:58:48.777Z,12.48
2023-02-23T22:01:21.549Z,13.32
2023-02-23T22:03:49.521Z,13.20
2023-02-23T22:06:21.152Z,13.02
2023-02-23T22:08:51.732Z,12.38
2023-02-23T22:11:28.924Z,13.15
2023-02-23T22:14:00.002Z,12.32
2023-02-23T22:16:31.465Z,12.27
2023-02-23T22:18:58.641Z,12.00
2023-02-23T22:21:28.775Z,12.77
2023-02-23T22:23:55.631Z,12.98
2023-02-23T22:26:22.562Z,13.40
2023-02-23T22:28:49.460Z,12.85
2023-02-23T22:31:16.552Z,13.82
2023-02-23T22:33:45.955Z,14.50
2023-02-23T22:36:14.752Z,13.00
2023-02-23T22:38:42.087Z,13.40
2023-02-23T22:41:10.228Z,13.45
2023-02-23T22:43:37.953Z,13.48
2023-02-23T22:46:06.462Z,12.75
2023-02-23T22:48:34.240Z,14.02
2023-02-23T22:51:02.364Z,13.90
2023-02-23T22:53:29.620Z,12.80
2023-02-23T22:55:57.208Z,12.95
2023-02-23T22:58:26.594Z,13.02
2023-02-23T23:01:06.645Z,12.95
2023-02-23T23:03:45.878Z,13.33
2023-02-23T23:06:22.201Z,12.90
2023-02-23T23:08:51.955Z,12.98
2023-02-23T23:11:21.977Z,12.95
2023-02-23T23:13:52.280Z,12.82
2023-02-23T23:16:31.007Z,13.40
2023-02-23T23:19:08.010Z,13.48
2023-02-23T23:21:40.118Z,13.02
2023-02-23T23:24:08.252Z,12.48
2023-02-23T23:26:39.815Z,12.88
2023-02-23T23:29:10.305Z,12.95
2023-02-23T23:31:38.937Z,13.40
2023-02-23T23:34:09.953Z,13.75
2023-02-23T23:39:16.425Z,12.60
2023-02-23T23:41:46.206Z,13.07
2023-02-23T23:44:13.338Z,15.35
2023-02-23T23:46:45.230Z,12.43
2023-02-23T23:49:16.072Z,12.35
2023-02-23T23:54:15.695Z,12.57
2023-02-23T23:56:43.813Z,10.55
2023-02-23T23:59:17.474Z,11.75
